createdAt,value
2019-04-27T00:00:14.286Z,5.67
2019-04-27T00:02:44.661Z,3.98
2019-04-27T00:05:17.680Z,4.58
2019-04-27T00:07:51.395Z,4.63
2019-04-27T00:10:31.359Z,5.17
2019-04-27T00:13:02.186Z,4.22
2019-04-27T00:15:34.395Z,3.77
2019-04-27T00:18:04.254Z,4.40
2019-04-27T00:20:40.171Z,4.70
2019-04-27T00:23:10.470Z,4.03
2019-04-27T00:25:39.144Z,3.60
2019-04-27T00:28:07.887Z,3.92
2019-04-27T00:30:36.637Z,3.30
2019-04-27T00:33:05.503Z,3.55
2019-04-27T00:35:36.218Z,3.25
2019-04-27T00:38:09.426Z,3.27
2019-04-27T00:40:39.753Z,4.05
2019-04-27T00:43:08.411Z,3.30
2019-04-27T00:45:37.237Z,3.52
2019-04-27T00:48:06.020Z,3.70
2019-04-27T00:50:34.683Z,3.33
2019-04-27T00:53:03.540Z,3.35
2019-04-27T00:55:34.110Z,3.10
2019-04-27T00:58:04.403Z,3.92
2019-04-27T01:00:40.426Z,4.00
2019-04-27T01:03:13.939Z,3.30
2019-04-27T01:05:43.165Z,4.40
2019-04-27T01:08:13.790Z,3.42
2019-04-27T01:10:43.549Z,3.12
2019-04-27T01:13:13.257Z,3.45
2019-04-27T01:15:43.027Z,4.65
2019-04-27T01:18:15.329Z,5.12
2019-04-27T01:20:42.362Z,4.65
2019-04-27T01:23:11.028Z,4.87
2019-04-27T01:25:41.315Z,4.37
2019-04-27T01:28:20.629Z,4.40
2019-04-27T01:30:54.014Z,4.50
2019-04-27T01:33:22.759Z,4.15
2019-04-27T01:35:51.407Z,3.72
2019-04-27T01:38:20.099Z,3.60
2019-04-27T01:40:49.830Z,4.75
2019-04-27T01:43:18.693Z,4.45
2019-04-27T01:45:48.819Z,3.30
2019-04-27T01:48:23.724Z,5.97
2019-04-27T01:50:49.229Z,4.80
2019-04-27T01:53:19.036Z,4.08
2019-04-27T01:55:49.137Z,4.70
2019-04-27T01:58:20.126Z,3.12
2019-04-27T02:00:52.688Z,5.22
2019-04-27T02:03:33.207Z,3.77
2019-04-27T02:05:59.436Z,3.52
2019-04-27T02:08:28.620Z,4.87
2019-04-27T02:10:59.280Z,5.15
2019-04-27T02:13:29.030Z,4.25
2019-04-27T02:15:58.817Z,4.10
2019-04-27T02:18:35.633Z,4.53
2019-04-27T02:20:59.126Z,3.55
2019-04-27T02:23:29.355Z,4.30
2019-04-27T02:25:58.689Z,4.40
2019-04-27T02:28:47.115Z,3.80
2019-04-27T02:31:26.211Z,5.17
2019-04-27T02:34:02.511Z,3.60
2019-04-27T02:36:31.233Z,4.33
2019-04-27T02:38:59.882Z,4.53
2019-04-27T02:41:29.745Z,4.80
2019-04-27T02:44:01.731Z,4.35
2019-04-27T02:46:31.587Z,4.53
2019-04-27T02:49:06.069Z,4.78
2019-04-27T02:51:35.172Z,4.05
2019-04-27T02:54:03.919Z,3.67
2019-04-27T02:56:32.643Z,4.37
2019-04-27T02:59:01.303Z,4.03
2019-04-27T03:01:31.683Z,4.85
2019-04-27T03:04:00.653Z,3.77
2019-04-27T03:06:30.218Z,3.92
2019-04-27T03:09:00.490Z,3.62
2019-04-27T03:11:30.997Z,3.42
2019-04-27T03:14:29.423Z,3.80
2019-04-27T03:17:05.685Z,4.50
2019-04-27T03:19:39.796Z,4.10
2019-04-27T03:22:16.590Z,5.03
2019-04-27T03:25:00.193Z,4.30
2019-04-27T03:27:45.913Z,4.55
2019-04-27T03:30:16.075Z,5.50
2019-04-27T03:32:44.937Z,4.80
2019-04-27T03:35:14.246Z,4.90
2019-04-27T03:37:43.116Z,4.90
2019-04-27T03:40:12.094Z,5.37
2019-04-27T03:42:42.384Z,5.50
2019-04-27T03:45:11.211Z,5.50
2019-04-27T03:47:40.965Z,5.15
2019-04-27T03:50:12.418Z,6.30
2019-04-27T03:52:42.786Z,7.40
2019-04-27T03:55:19.756Z,7.10
2019-04-27T03:58:00.069Z,5.75
2019-04-27T04:00:30.780Z,5.67
2019-04-27T04:03:00.532Z,6.05
2019-04-27T04:05:30.045Z,7.47
2019-04-27T04:08:00.418Z,5.62
2019-04-27T04:10:31.135Z,5.87
2019-04-27T04:13:01.906Z,6.10
2019-04-27T04:15:41.428Z,7.30
2019-04-27T04:18:10.126Z,7.15
2019-04-27T04:20:40.485Z,6.78
2019-04-27T04:23:10.551Z,7.28
2019-04-27T04:25:40.961Z,6.60
2019-04-27T04:28:09.912Z,6.80
2019-04-27T04:30:40.296Z,7.30
2019-04-27T04:33:10.153Z,7.40
2019-04-27T04:35:39.913Z,8.65
2019-04-27T04:38:10.378Z,9.05
2019-04-27T04:40:46.773Z,9.80
2019-04-27T04:43:25.938Z,11.50
2019-04-27T04:46:12.765Z,10.40
2019-04-27T04:48:40.364Z,11.15
2019-04-27T04:51:10.070Z,10.95
2019-04-27T04:53:40.560Z,11.20
2019-04-27T04:56:10.672Z,10.95
2019-04-27T04:58:42.727Z,10.85
2019-04-27T05:01:11.450Z,11.03
2019-04-27T05:03:40.183Z,11.97
2019-04-27T05:06:08.907Z,11.73
2019-04-27T05:08:39.264Z,10.88
2019-04-27T05:11:09.670Z,10.20
2019-04-27T05:13:39.347Z,9.93
2019-04-27T05:16:08.977Z,11.03
2019-04-27T05:18:39.257Z,10.48
2019-04-27T05:21:18.805Z,10.18
2019-04-27T05:23:48.713Z,8.75
2019-04-27T05:26:19.016Z,9.88
2019-04-27T05:28:49.195Z,8.35
2019-04-27T05:31:19.509Z,8.93
2019-04-27T05:33:49.054Z,8.78
2019-04-27T05:36:19.266Z,7.92
2019-04-27T05:38:49.660Z,8.03
2019-04-27T05:41:23.798Z,7.78
2019-04-27T05:43:59.185Z,7.95
2019-04-27T05:46:45.891Z,7.78
2019-04-27T05:49:20.611Z,7.62
2019-04-27T05:51:50.153Z,7.97
2019-04-27T05:54:19.866Z,7.47
2019-04-27T05:56:49.294Z,8.15
2019-04-27T05:59:19.833Z,7.30
2019-04-27T06:01:49.316Z,7.22
2019-04-27T06:04:19.282Z,7.28
2019-04-27T06:06:50.322Z,7.03
2019-04-27T06:09:19.536Z,7.50
2019-04-27T06:11:48.639Z,8.23
2019-04-27T06:14:19.243Z,6.20
2019-04-27T06:16:50.954Z,6.15
2019-04-27T06:19:19.327Z,6.17
2019-04-27T06:21:49.826Z,6.53
2019-04-27T06:24:18.689Z,6.58
2019-04-27T06:26:49.635Z,6.67
2019-04-27T06:29:19.380Z,6.92
2019-04-27T06:31:49.600Z,6.20
2019-04-27T06:34:19.389Z,6.40
2019-04-27T06:36:48.648Z,6.60
2019-04-27T06:39:18.919Z,6.50
2019-04-27T06:41:49.083Z,6.60
2019-04-27T06:44:19.574Z,6.83
2019-04-27T06:46:49.019Z,6.37
2019-04-27T06:49:19.474Z,6.85
2019-04-27T06:51:49.791Z,6.42
2019-04-27T06:54:21.054Z,7.55
2019-04-27T06:56:49.280Z,7.70
2019-04-27T06:59:18.637Z,8.48
2019-04-27T07:01:48.862Z,8.35
2019-04-27T07:04:19.419Z,9.10
2019-04-27T07:06:54.204Z,8.43
2019-04-27T07:09:19.625Z,9.55
2019-04-27T07:11:49.438Z,9.60
2019-04-27T07:14:19.702Z,10.63
2019-04-27T07:16:48.847Z,9.25
2019-04-27T07:19:19.120Z,9.78
2019-04-27T07:21:49.631Z,8.63
2019-04-27T07:24:19.659Z,9.38
2019-04-27T07:26:48.931Z,8.10
2019-04-27T07:29:19.391Z,7.75
2019-04-27T07:31:49.557Z,8.60
2019-04-27T07:34:19.014Z,8.30
2019-04-27T07:36:49.097Z,8.00
2019-04-27T07:39:19.235Z,7.05
2019-04-27T07:41:48.781Z,7.42
2019-04-27T07:44:34.586Z,7.22
2019-04-27T07:47:19.820Z,6.67
2019-04-27T07:49:49.637Z,6.58
2019-04-27T07:52:20.425Z,6.62
2019-04-27T07:54:49.324Z,6.62
2019-04-27T07:57:19.739Z,5.37
2019-04-27T07:59:50.097Z,3.52
2019-04-27T08:02:19.226Z,3.70
2019-04-27T08:04:50.305Z,3.85
2019-04-27T08:07:19.679Z,2.70
2019-04-27T08:09:49.663Z,3.05
2019-04-27T08:12:20.670Z,2.58
2019-04-27T08:14:49.234Z,4.03
2019-04-27T08:17:19.119Z,2.80
2019-04-27T08:19:49.606Z,3.95
2019-04-27T08:22:19.335Z,3.27
2019-04-27T08:24:49.574Z,3.27
2019-04-27T08:27:32.480Z,4.15
2019-04-27T08:30:02.770Z,4.03
2019-04-27T08:32:33.089Z,3.77
2019-04-27T08:35:01.810Z,4.22
2019-04-27T08:37:30.502Z,3.87
2019-04-27T08:39:59.262Z,3.90
2019-04-27T08:42:29.363Z,3.75
2019-04-27T08:44:59.406Z,4.17
2019-04-27T08:47:29.314Z,4.20
2019-04-27T08:49:59.108Z,4.58
2019-04-27T08:52:28.981Z,3.60
2019-04-27T08:54:59.414Z,3.67
2019-04-27T08:57:28.978Z,2.35
2019-04-27T08:59:59.707Z,3.62
2019-04-27T09:02:39.759Z,2.90
2019-04-27T09:04:59.633Z,3.85
2019-04-27T09:07:39.798Z,3.65
2019-04-27T09:10:13.944Z,3.30
2019-04-27T09:12:47.133Z,3.33
2019-04-27T09:15:19.161Z,2.77
2019-04-27T09:17:52.262Z,2.60
2019-04-27T09:20:22.640Z,2.35
2019-04-27T09:22:51.374Z,1.90
2019-04-27T09:25:20.096Z,2.02
2019-04-27T09:27:49.298Z,2.33
2019-04-27T09:30:19.074Z,2.40
2019-04-27T09:32:47.940Z,2.02
2019-04-27T09:35:16.666Z,1.98
2019-04-27T09:37:45.848Z,2.00
2019-04-27T09:40:15.068Z,2.25
2019-04-27T09:42:43.723Z,1.82
2019-04-27T09:45:12.722Z,2.22
2019-04-27T09:47:41.382Z,1.80
2019-04-27T09:50:10.404Z,1.82
2019-04-27T09:52:39.048Z,2.00
2019-04-27T09:55:08.508Z,1.50
2019-04-27T09:57:37.321Z,1.85
2019-04-27T10:00:11.200Z,2.08
2019-04-27T10:02:39.921Z,1.05
2019-04-27T10:05:08.855Z,1.20
2019-04-27T10:07:37.508Z,1.02
2019-04-27T10:10:07.808Z,1.70
2019-04-27T10:12:36.981Z,1.32
2019-04-27T10:15:06.943Z,1.27
2019-04-27T10:17:35.599Z,1.20
2019-04-27T10:20:06.146Z,1.07
2019-04-27T10:22:41.194Z,1.00
2019-04-27T10:25:09.926Z,0.70
2019-04-27T10:27:38.583Z,0.68
2019-04-27T10:30:10.953Z,0.40
2019-04-27T10:32:39.597Z,0.47
2019-04-27T10:35:08.461Z,0.40
2019-04-27T10:37:37.194Z,0.55
2019-04-27T10:40:06.254Z,0.60
2019-04-27T10:42:35.820Z,0.40
2019-04-27T10:45:06.558Z,0.42
2019-04-27T10:47:36.027Z,13.03
2019-04-27T10:50:06.411Z,3.22
2019-04-27T10:52:35.180Z,2.05
2019-04-27T10:55:05.956Z,0.30
2019-04-27T10:57:34.888Z,0.55
2019-04-27T11:00:06.682Z,0.28
2019-04-27T11:02:35.591Z,0.10
2019-04-27T11:05:14.439Z,0.20
2019-04-27T11:07:43.240Z,0.30
2019-04-27T11:10:12.104Z,0.53
2019-04-27T11:12:40.768Z,0.30
2019-04-27T11:15:10.669Z,0.20
2019-04-27T11:17:39.423Z,0.30
2019-04-27T11:20:09.017Z,0.20
2019-04-27T11:22:37.850Z,0.20
2019-04-27T11:25:10.546Z,0.30
2019-04-27T11:27:39.238Z,0.37
2019-04-27T11:30:09.463Z,0.47
2019-04-27T11:32:38.238Z,0.45
2019-04-27T11:35:15.664Z,0.25
2019-04-27T11:37:48.350Z,0.30
2019-04-27T11:40:18.671Z,0.10
2019-04-27T11:42:47.393Z,0.30
2019-04-27T11:45:17.659Z,0.20
2019-04-27T11:47:46.378Z,0.20
2019-04-27T11:50:16.549Z,0.30
2019-04-27T11:52:45.777Z,0.28
2019-04-27T11:55:16.244Z,0.35
2019-04-27T11:57:44.969Z,0.30
2019-04-27T12:00:16.614Z,0.20
2019-04-27T12:02:45.779Z,0.60
2019-04-27T12:05:16.135Z,0.35
2019-04-27T12:07:47.534Z,0.30
2019-04-27T12:10:16.605Z,0.30
2019-04-27T12:12:46.358Z,0.50
2019-04-27T12:15:16.154Z,0.45
2019-04-27T12:17:46.147Z,0.60
2019-04-27T12:20:15.950Z,0.55
2019-04-27T12:22:45.698Z,0.40
2019-04-27T12:25:15.555Z,0.80
2019-04-27T12:27:57.750Z,0.80
2019-04-27T12:30:43.231Z,1.17
2019-04-27T12:33:12.065Z,0.60
2019-04-27T12:35:40.712Z,0.70
2019-04-27T12:38:09.370Z,0.55
2019-04-27T12:40:38.098Z,0.60
2019-04-27T12:43:06.819Z,0.80
2019-04-27T12:45:36.967Z,1.07
2019-04-27T12:48:06.123Z,0.47
2019-04-27T12:50:36.159Z,0.50
2019-04-27T12:53:09.346Z,0.40
2019-04-27T12:55:42.511Z,0.60
2019-04-27T12:58:27.937Z,0.50
2019-04-27T13:01:07.256Z,0.62
2019-04-27T13:03:36.266Z,0.80
2019-04-27T13:06:04.854Z,1.05
2019-04-27T13:08:33.591Z,0.93
2019-04-27T13:11:02.251Z,1.20
2019-04-27T13:13:30.950Z,1.70
2019-04-27T13:16:01.475Z,1.12
2019-04-27T13:18:30.313Z,1.40
2019-04-27T13:20:58.977Z,1.60
2019-04-27T13:23:28.563Z,2.25
2019-04-27T13:25:57.376Z,1.82
2019-04-27T13:28:26.035Z,2.22
2019-04-27T13:30:55.955Z,2.27
2019-04-27T13:33:26.337Z,2.05
2019-04-27T13:35:55.076Z,2.20
2019-04-27T13:38:23.837Z,2.12
2019-04-27T13:41:08.314Z,2.40
2019-04-27T13:43:37.909Z,2.62
2019-04-27T13:46:09.160Z,2.40
2019-04-27T13:48:56.258Z,2.40
2019-04-27T13:51:32.311Z,2.35
2019-04-27T13:54:01.042Z,2.47
2019-04-27T13:56:29.739Z,2.12
2019-04-27T13:58:58.656Z,1.60
2019-04-27T14:01:27.308Z,2.58
2019-04-27T14:03:56.039Z,2.15
2019-04-27T14:06:24.763Z,1.85
2019-04-27T14:08:53.499Z,1.42
2019-04-27T14:11:22.206Z,1.45
2019-04-27T14:13:50.962Z,1.60
2019-04-27T14:16:19.619Z,1.25
2019-04-27T14:18:48.269Z,1.45
2019-04-27T14:21:16.925Z,1.30
2019-04-27T14:23:45.639Z,1.60
2019-04-27T14:26:14.399Z,1.42
2019-04-27T14:28:43.087Z,1.50
2019-04-27T14:31:11.798Z,1.00
2019-04-27T14:33:40.512Z,0.93
2019-04-27T14:36:09.277Z,1.50
2019-04-27T14:38:37.926Z,1.20
2019-04-27T14:41:08.932Z,1.40
2019-04-27T14:43:37.424Z,1.30
2019-04-27T14:46:08.053Z,1.35
2019-04-27T14:48:36.600Z,1.70
2019-04-27T14:51:05.353Z,1.65
2019-04-27T14:53:34.032Z,1.87
2019-04-27T14:56:02.684Z,1.47
2019-04-27T14:58:31.439Z,2.00
2019-04-27T15:01:00.127Z,2.52
2019-04-27T15:03:28.780Z,2.37
2019-04-27T15:05:57.443Z,2.12
2019-04-27T15:08:26.157Z,2.15
2019-04-27T15:10:54.919Z,2.37
2019-04-27T15:13:23.606Z,2.27
2019-04-27T15:15:52.269Z,1.77
2019-04-27T15:18:22.834Z,1.25
2019-04-27T15:20:51.790Z,1.27
2019-04-27T15:23:20.629Z,1.65
2019-04-27T15:25:49.993Z,1.67
2019-04-27T15:28:20.465Z,2.55
2019-04-27T15:30:53.568Z,2.87
2019-04-27T15:35:53.526Z,3.10
2019-04-27T15:38:26.671Z,2.35
2019-04-27T15:40:58.210Z,2.00
2019-04-27T15:43:30.859Z,1.75
2019-04-27T15:45:59.203Z,2.10
2019-04-27T15:48:30.662Z,2.30
2019-04-27T15:51:02.806Z,1.50
2019-04-27T15:53:28.627Z,1.65
2019-04-27T15:56:00.547Z,1.65
2019-04-27T15:58:28.409Z,1.57
2019-04-27T16:01:01.040Z,1.80
2019-04-27T16:03:31.377Z,1.52
2019-04-27T16:06:03.311Z,1.40
2019-04-27T16:08:29.869Z,1.67
2019-04-27T16:10:58.923Z,2.08
2019-04-27T16:13:32.689Z,2.25
2019-04-27T16:15:59.490Z,2.15
2019-04-27T16:18:30.936Z,1.30
2019-04-27T16:20:58.661Z,1.25
2019-04-27T16:23:28.190Z,1.02
2019-04-27T16:25:58.194Z,0.88
2019-04-27T16:28:27.574Z,1.00
2019-04-27T16:30:58.070Z,1.05
2019-04-27T16:33:26.630Z,0.90
2019-04-27T16:36:00.286Z,0.70
2019-04-27T16:38:33.417Z,0.50
2019-04-27T16:41:01.228Z,0.55
2019-04-27T16:43:32.539Z,0.70
2019-04-27T16:46:04.196Z,0.55
2019-04-27T16:48:34.432Z,0.60
2019-04-27T16:51:00.762Z,0.60
2019-04-27T16:53:30.049Z,0.80
2019-04-27T16:56:14.536Z,0.93
2019-04-27T16:58:39.517Z,0.82
2019-04-27T17:01:24.123Z,0.90
2019-04-27T17:03:52.914Z,0.95
2019-04-27T17:06:21.645Z,0.80
2019-04-27T17:08:50.290Z,0.72
2019-04-27T17:11:19.589Z,0.70
2019-04-27T17:14:02.442Z,1.07
2019-04-27T17:16:50.874Z,1.35
2019-04-27T17:19:21.169Z,1.27
2019-04-27T17:21:49.970Z,2.08
2019-04-27T17:24:42.221Z,2.02
2019-04-27T17:27:11.507Z,2.17
2019-04-27T17:29:40.493Z,2.83
2019-04-27T17:32:10.932Z,2.83
2019-04-27T17:34:39.778Z,3.00
2019-04-27T17:37:08.555Z,3.00
2019-04-27T17:39:38.699Z,3.47
2019-04-27T17:42:08.497Z,2.95
2019-04-27T17:44:39.202Z,2.65
2019-04-27T17:47:08.840Z,3.02
2019-04-27T17:49:38.201Z,3.20
2019-04-27T17:52:08.649Z,2.42
2019-04-27T17:54:42.462Z,2.85
2019-04-27T17:57:10.410Z,2.55
2019-04-27T17:59:37.968Z,2.65
2019-04-27T18:02:08.777Z,2.05
2019-04-27T18:04:40.751Z,2.47
2019-04-27T18:07:08.930Z,2.80
2019-04-27T18:09:43.327Z,2.42
2019-04-27T18:12:14.686Z,2.05
2019-04-27T18:14:41.221Z,2.22
2019-04-27T18:17:12.124Z,2.40
2019-04-27T18:19:46.388Z,2.08
2019-04-27T18:22:15.037Z,2.25
2019-04-27T18:24:47.913Z,2.47
2019-04-27T18:27:33.640Z,2.57
2019-04-27T18:30:08.434Z,2.17
2019-04-27T18:32:40.278Z,2.40
2019-04-27T18:35:08.471Z,2.27
2019-04-27T18:37:38.881Z,2.62
2019-04-27T18:40:09.342Z,2.45
2019-04-27T18:42:38.527Z,2.98
2019-04-27T18:45:08.390Z,3.05
2019-04-27T18:47:40.517Z,2.40
2019-04-27T18:50:17.908Z,2.50
2019-04-27T18:52:50.234Z,2.62
2019-04-27T18:55:20.966Z,3.22
2019-04-27T18:57:53.200Z,2.70
2019-04-27T19:00:21.502Z,2.25
2019-04-27T19:02:50.500Z,2.10
2019-04-27T19:05:20.507Z,1.72
2019-04-27T19:07:50.945Z,1.42
2019-04-27T19:10:21.248Z,1.92
2019-04-27T19:12:50.118Z,1.80
2019-04-27T19:15:22.606Z,1.85
2019-04-27T19:17:51.537Z,1.87
2019-04-27T19:20:20.335Z,1.92
2019-04-27T19:22:49.249Z,2.45
2019-04-27T19:25:31.800Z,2.47
2019-04-27T19:28:18.712Z,1.90
2019-04-27T19:31:04.272Z,2.65
2019-04-27T19:33:33.006Z,4.10
2019-04-27T19:36:03.891Z,3.00
2019-04-27T19:38:32.271Z,4.05
2019-04-27T19:41:01.061Z,4.78
2019-04-27T19:43:29.867Z,4.65
2019-04-27T19:45:59.841Z,5.15
2019-04-27T19:48:28.738Z,3.33
2019-04-27T19:50:57.540Z,3.47
2019-04-27T19:53:26.347Z,3.33
2019-04-27T19:56:04.148Z,3.40
2019-04-27T19:58:38.154Z,3.00
2019-04-27T20:01:14.494Z,4.20
2019-04-27T20:03:44.665Z,3.55
2019-04-27T20:06:13.585Z,3.50
2019-04-27T20:08:44.963Z,3.12
2019-04-27T20:11:13.835Z,3.37
2019-04-27T20:13:44.091Z,3.25
2019-04-27T20:16:12.903Z,3.90
2019-04-27T20:18:43.355Z,3.30
2019-04-27T20:21:13.536Z,3.05
2019-04-27T20:23:42.307Z,3.50
2019-04-27T20:26:11.094Z,2.67
2019-04-27T20:28:41.416Z,2.77
2019-04-27T20:31:10.314Z,2.77
2019-04-27T20:33:39.055Z,2.47
2019-04-27T20:36:07.894Z,3.15
2019-04-27T20:38:36.549Z,2.65
2019-04-27T20:41:05.266Z,3.87
2019-04-27T20:43:33.955Z,3.50
2019-04-27T20:46:02.614Z,2.87
2019-04-27T20:48:31.377Z,4.22
2019-04-27T20:51:01.268Z,3.05
2019-04-27T20:53:34.311Z,2.85
2019-04-27T20:56:03.021Z,2.98
2019-04-27T20:58:31.691Z,2.50
2019-04-27T21:01:01.701Z,2.83
2019-04-27T21:03:32.798Z,3.17
2019-04-27T21:06:03.287Z,3.22
2019-04-27T21:08:33.581Z,4.10
2019-04-27T21:11:02.259Z,13.00
2019-04-27T21:13:31.042Z,3.37
2019-04-27T21:15:59.711Z,2.90
2019-04-27T21:18:28.364Z,4.03
2019-04-27T21:20:57.122Z,3.95
2019-04-27T21:23:25.774Z,3.90
2019-04-27T21:25:54.430Z,3.58
2019-04-27T21:28:23.070Z,2.83
2019-04-27T21:30:51.751Z,2.92
2019-04-27T21:33:21.528Z,3.30
2019-04-27T21:35:51.174Z,2.92
2019-04-27T21:38:19.955Z,2.72
2019-04-27T21:40:48.770Z,2.98
2019-04-27T21:43:21.608Z,2.80
2019-04-27T21:45:51.157Z,3.45
2019-04-27T21:48:21.200Z,2.95
2019-04-27T21:50:51.713Z,2.83
2019-04-27T21:53:38.229Z,2.98
2019-04-27T21:56:08.526Z,1.98
2019-04-27T21:58:37.190Z,3.70
2019-04-27T22:01:21.499Z,2.12
2019-04-27T22:06:19.733Z,1.72
2019-04-27T22:08:48.485Z,2.00
2019-04-27T22:11:17.269Z,1.92
2019-04-27T22:13:45.956Z,1.98
2019-04-27T22:16:14.606Z,1.32
2019-04-27T22:18:43.329Z,3.95
2019-04-27T22:21:12.105Z,1.72
2019-04-27T22:23:48.184Z,1.87
2019-04-27T22:26:16.967Z,2.35
2019-04-27T22:28:49.248Z,4.45
2019-04-27T22:31:16.078Z,1.98
2019-04-27T22:33:44.786Z,1.47
2019-04-27T22:36:13.566Z,3.08
2019-04-27T22:38:42.286Z,5.97
2019-04-27T22:41:13.063Z,1.70
2019-04-27T22:44:01.316Z,2.12
2019-04-27T22:46:34.451Z,2.08
2019-04-27T22:49:03.111Z,2.60
2019-04-27T22:51:31.761Z,2.60
2019-04-27T22:54:01.315Z,2.40
2019-04-27T22:56:32.054Z,2.17
2019-04-27T22:59:04.012Z,1.85
2019-04-27T23:01:51.300Z,4.22
2019-04-27T23:04:41.204Z,2.25
2019-04-27T23:07:11.065Z,2.65
2019-04-27T23:09:40.749Z,2.30
2019-04-27T23:12:11.970Z,2.67
2019-04-27T23:14:41.467Z,6.10
2019-04-27T23:17:14.667Z,3.70
2019-04-27T23:19:43.426Z,3.80
2019-04-27T23:22:12.132Z,3.60
2019-04-27T23:24:41.462Z,8.13
2019-04-27T23:27:11.069Z,3.33
2019-04-27T23:29:41.681Z,3.10
2019-04-27T23:32:11.837Z,5.42
2019-04-27T23:34:41.547Z,6.47
2019-04-27T23:37:10.387Z,4.10
2019-04-27T23:39:39.122Z,4.05
2019-04-27T23:42:07.921Z,5.40
2019-04-27T23:44:36.570Z,4.55
2019-04-27T23:47:05.226Z,4.78
2019-04-27T23:49:33.888Z,4.55
2019-04-27T23:52:06.997Z,5.25
2019-04-27T23:54:35.727Z,4.22
2019-04-27T23:57:04.518Z,5.85
2019-04-27T23:59:33.373Z,6.58
